Nea Anchialos, Greece
Current Conditions -  °F | °C
As of 8:50 PM on Friday 28 Nov 2014 (Local Time) from LGBL Reporting Station
Overcast Overcast  
Wind Chill: 52°   Ceiling: 2500
Heat Index: 52°   Visibility: 5mi
Dew Point: 48°   Wind: 3mph
Humidity: 88%   Direction: NA
Pressure: 30.24"   Gusts: NA
Location:  39.27°N, 22.82°E
Report Text: LGBL 281850Z VRB03KT 8000 SCT010 OVC025 11/09 Q1024
Loading
Personal Weather Stations






























Interactive Weather Map New forecast layout! Learn more

10-Day Weather Forecast

Advertisements
Track Severe Weather on mobile